Time;durP1;ratioP1;P1;durP2;ratioP2;P2;SDS_P1;SDS_P2;PMS_P1;PMS_P2;Temp;Humidity;BMP_temperature;BMP_pressure;BME280_temperature;BME280_humidity;BME280_pressure;Samples;Min_cycle;Max_cycle;Signal;HPM_P1;HPM_P2
2021/03/04 00:01:07;;;;;;;42.75;11.65;;;;;;;;;;5043953;28;20041;-60
2021/03/04 00:03:32;;;;;;;37.50;10.30;;;;;;;;;;5005949;28;20136;-61
2021/03/04 00:05:58;;;;;;;38.22;11.20;;;;;;;;;;5040935;28;20136;-61
2021/03/04 00:08:28;;;;;;;38.70;11.40;;;;;;;;;;5031165;28;20431;-60
2021/03/04 00:10:56;;;;;;;40.83;11.57;;;;;;;;;;5026259;28;20032;-61
2021/03/04 00:13:24;;;;;;;29.27;10.00;;;;;;;;;;5019529;28;20099;-60
2021/03/04 00:15:54;;;;;;;39.47;12.00;;;;;;;;;;5036646;28;20057;-61
2021/03/04 00:18:21;;;;;;;36.75;12.43;;;;;;;;;;5038474;28;20032;-61
2021/03/04 00:20:48;;;;;;;40.97;11.63;;;;;;;;;;5017219;28;20029;-61
2021/03/04 00:23:18;;;;;;;35.47;10.63;;;;;;;;;;5037573;28;20220;-61
2021/03/04 00:25:44;;;;;;;37.58;10.40;;;;;;;;;;5037642;28;20082;-61
2021/03/04 00:28:11;;;;;;;50.72;13.13;;;;;;;;;;5036787;28;20040;-60
2021/03/04 00:30:39;;;;;;;44.83;11.93;;;;;;;;;;5021415;28;20041;-61
2021/03/04 00:33:05;;;;;;;37.53;11.43;;;;;;;;;;5039555;28;20031;-61
2021/03/04 00:35:33;;;;;;;43.03;12.82;;;;;;;;;;5005353;28;20032;-61
2021/03/04 00:38:01;;;;;;;40.60;11.98;;;;;;;;;;5019162;28;20696;-61
2021/03/04 00:40:28;;;;;;;48.17;12.82;;;;;;;;;;5036677;28;20047;-61
2021/03/04 00:42:54;;;;;;;46.78;12.55;;;;;;;;;;5004951;28;20055;-61
2021/03/04 00:45:23;;;;;;;52.08;10.77;;;;;;;;;;5036249;28;20039;-61
2021/03/04 00:47:48;;;;;;;44.95;13.43;;;;;;;;;;5052010;28;20895;-62
2021/03/04 00:50:14;;;;;;;38.90;12.07;;;;;;;;;;5022543;28;20024;-62
2021/03/04 00:52:45;;;;;;;44.78;11.98;;;;;;;;;;5039785;28;20049;-61
2021/03/04 00:55:10;;;;;;;57.08;15.75;;;;;;;;;;5038651;28;20649;-62
2021/03/04 00:57:38;;;;;;;50.55;15.13;;;;;;;;;;5020215;28;20036;-60
2021/03/04 01:00:07;;;;;;;52.38;14.70;;;;;;;;;;5040570;28;20036;-62
2021/03/04 01:02:35;;;;;;;48.22;12.63;;;;;;;;;;5042011;28;20037;-62
2021/03/04 01:05:00;;;;;;;58.60;14.48;;;;;;;;;;5025817;28;21112;-60
2021/03/04 01:07:28;;;;;;;46.08;13.25;;;;;;;;;;5038318;28;20141;-62
2021/03/04 01:09:54;;;;;;;49.10;13.85;;;;;;;;;;5025611;28;20083;-61
2021/03/04 01:12:20;;;;;;;47.08;13.05;;;;;;;;;;5034870;28;20167;-60
2021/03/04 01:14:53;;;;;;;51.97;14.45;;;;;;;;;;5037806;28;20041;-60
2021/03/04 01:17:18;;;;;;;50.20;13.98;;;;;;;;;;5034349;28;20064;-61
2021/03/04 01:19:44;;;;;;;42.88;12.23;;;;;;;;;;5042895;28;21396;-60
2021/03/04 01:22:09;;;;;;;45.17;14.50;;;;;;;;;;5001271;28;20033;-60
2021/03/04 01:24:37;;;;;;;50.72;13.95;;;;;;;;;;5019932;28;20115;-61
2021/03/04 01:27:02;;;;;;;44.95;14.30;;;;;;;;;;5017169;28;20127;-61
2021/03/04 01:29:31;;;;;;;46.75;13.27;;;;;;;;;;5036610;28;20037;-61
2021/03/04 01:31:56;;;;;;;46.30;12.25;;;;;;;;;;5038792;28;20036;-61
2021/03/04 01:34:24;;;;;;;38.67;11.77;;;;;;;;;;5037780;28;20064;-61
2021/03/04 01:36:49;;;;;;;46.00;13.05;;;;;;;;;;5039579;28;20574;-62
2021/03/04 01:39:15;;;;;;;46.00;12.43;;;;;;;;;;5038307;28;20062;-61
2021/03/04 01:41:41;;;;;;;42.38;11.73;;;;;;;;;;5040106;28;20062;-62
2021/03/04 01:44:09;;;;;;;41.30;12.05;;;;;;;;;;5038981;28;20138;-62
2021/03/04 01:46:34;;;;;;;38.95;11.25;;;;;;;;;;5023583;28;20055;-61
2021/03/04 01:49:02;;;;;;;37.35;11.40;;;;;;;;;;5040196;28;20064;-61
2021/03/04 01:51:30;;;;;;;32.97;9.32;;;;;;;;;;5031763;28;20116;-61
2021/03/04 01:54:00;;;;;;;37.17;10.52;;;;;;;;;;5039072;28;20551;-59
2021/03/04 01:56:25;;;;;;;38.10;10.75;;;;;;;;;;5033100;28;20037;-61
2021/03/04 01:58:51;;;;;;;31.70;9.80;;;;;;;;;;5006290;28;20110;-60
2021/03/04 02:01:16;;;;;;;32.85;10.60;;;;;;;;;;4990262;28;20043;-61
2021/03/04 02:03:41;;;;;;;32.80;9.45;;;;;;;;;;5019426;28;20033;-61
2021/03/04 02:06:07;;;;;;;26.77;8.50;;;;;;;;;;5017350;28;20070;-62
2021/03/04 02:08:35;;;;;;;31.52;9.10;;;;;;;;;;5028441;28;20078;-62
2021/03/04 02:11:07;;;;;;;26.95;8.48;;;;;;;;;;5038362;28;20510;-60
2021/03/04 02:13:36;;;;;;;35.30;10.02;;;;;;;;;;5030719;28;20598;-60
2021/03/04 02:16:09;;;;;;;28.75;9.57;;;;;;;;;;5040339;28;20072;-62
2021/03/04 02:18:36;;;;;;;31.52;9.27;;;;;;;;;;5039162;28;20036;-61
2021/03/04 02:21:04;;;;;;;30.27;8.75;;;;;;;;;;5035505;28;20079;-62
2021/03/04 02:23:46;;;;;;;23.40;8.48;;;;;;;;;;5037291;28;20033;-61
2021/03/04 02:26:32;;;;;;;27.15;8.95;;;;;;;;;;5037528;28;20111;-61
2021/03/04 02:29:03;;;;;;;27.65;9.63;;;;;;;;;;5020463;28;20037;-61
2021/03/04 02:31:30;;;;;;;26.15;9.50;;;;;;;;;;5037440;28;20103;-61
2021/03/04 02:33:56;;;;;;;33.35;8.70;;;;;;;;;;5044754;28;20109;-60
2021/03/04 02:36:27;;;;;;;25.90;8.65;;;;;;;;;;5039504;28;20120;-61
2021/03/04 02:39:01;;;;;;;30.33;8.95;;;;;;;;;;5038486;28;20036;-61
2021/03/04 02:41:27;;;;;;;21.70;7.40;;;;;;;;;;5036083;28;20042;-61
2021/03/04 02:43:55;;;;;;;20.75;6.68;;;;;;;;;;5026883;28;20056;-60
2021/03/04 02:46:21;;;;;;;22.30;7.53;;;;;;;;;;5041437;28;20800;-61
2021/03/04 02:48:46;;;;;;;21.05;6.80;;;;;;;;;;5043615;28;20092;-60
2021/03/04 02:51:12;;;;;;;20.45;7.90;;;;;;;;;;5040014;28;20085;-61
2021/03/04 02:53:43;;;;;;;25.45;7.43;;;;;;;;;;5040905;28;20056;-60
2021/03/04 02:56:14;;;;;;;19.45;6.88;;;;;;;;;;5036887;28;20041;-59
2021/03/04 02:58:44;;;;;;;22.80;7.80;;;;;;;;;;5037982;28;20036;-61
2021/03/04 03:01:09;;;;;;;26.98;7.85;;;;;;;;;;5026463;28;20514;-61
2021/03/04 03:03:35;;;;;;;21.35;7.55;;;;;;;;;;5027756;28;20041;-61
2021/03/04 03:06:03;;;;;;;20.30;7.03;;;;;;;;;;5021108;28;20032;-60
2021/03/04 03:08:31;;;;;;;25.30;7.88;;;;;;;;;;5036225;28;20032;-60
2021/03/04 03:11:01;;;;;;;27.67;8.13;;;;;;;;;;5039147;28;20477;-61
2021/03/04 03:13:29;;;;;;;22.70;8.15;;;;;;;;;;5036569;28;20037;-61
2021/03/04 03:15:55;;;;;;;21.42;7.38;;;;;;;;;;5042979;28;20736;-60
2021/03/04 03:18:22;;;;;;;20.13;6.80;;;;;;;;;;5036663;28;20029;-61
2021/03/04 03:20:47;;;;;;;24.13;7.22;;;;;;;;;;5044530;28;20079;-61
2021/03/04 03:23:15;;;;;;;23.02;7.45;;;;;;;;;;5038375;28;20124;-61
2021/03/04 03:25:40;;;;;;;16.48;6.88;;;;;;;;;;5021324;28;20160;-59
2021/03/04 03:28:10;;;;;;;17.20;6.55;;;;;;;;;;5023923;28;20040;-61
2021/03/04 03:30:38;;;;;;;20.77;5.55;;;;;;;;;;5035153;28;20124;-61
2021/03/04 03:33:06;;;;;;;17.30;6.22;;;;;;;;;;5041676;28;20102;-61
2021/03/04 03:35:32;;;;;;;20.08;6.68;;;;;;;;;;5034836;28;20036;-61
2021/03/04 03:37:58;;;;;;;22.83;7.40;;;;;;;;;;5036658;28;20032;-60
2021/03/04 03:40:25;;;;;;;21.70;7.47;;;;;;;;;;5036941;28;20118;-60
2021/03/04 03:42:54;;;;;;;23.95;7.60;;;;;;;;;;5035621;28;20425;-60
2021/03/04 03:45:23;;;;;;;22.83;7.18;;;;;;;;;;5021655;28;20223;-59
2021/03/04 03:47:49;;;;;;;20.65;7.18;;;;;;;;;;5042001;28;20032;-62
2021/03/04 03:50:16;;;;;;;22.02;7.65;;;;;;;;;;5038864;28;20093;-60
2021/03/04 03:52:43;;;;;;;19.67;7.18;;;;;;;;;;5027661;28;20457;-60
2021/03/04 03:55:08;;;;;;;20.33;6.70;;;;;;;;;;5034951;28;20032;-63
2021/03/04 03:57:35;;;;;;;17.88;5.90;;;;;;;;;;5037561;28;20162;-61
2021/03/04 04:00:03;;;;;;;15.90;5.72;;;;;;;;;;5039130;28;20041;-61
2021/03/04 04:02:32;;;;;;;19.10;6.55;;;;;;;;;;5034926;28;20044;-60
2021/03/04 04:05:01;;;;;;;22.50;6.75;;;;;;;;;;5039508;28;20423;-59
2021/03/04 04:07:30;;;;;;;18.27;6.28;;;;;;;;;;5039107;28;20119;-60
2021/03/04 04:09:56;;;;;;;20.35;7.15;;;;;;;;;;5019914;28;20063;-61
2021/03/04 04:12:22;;;;;;;15.88;6.32;;;;;;;;;;5036734;28;20465;-60
2021/03/04 04:14:54;;;;;;;21.42;6.30;;;;;;;;;;5044906;28;20132;-61
2021/03/04 04:17:20;;;;;;;15.38;6.20;;;;;;;;;;5029417;28;20118;-61
2021/03/04 04:19:48;;;;;;;23.83;7.15;;;;;;;;;;5047269;28;20036;-60
2021/03/04 04:22:16;;;;;;;23.73;7.75;;;;;;;;;;5042446;28;20074;-61
2021/03/04 04:24:44;;;;;;;24.02;7.30;;;;;;;;;;5027973;28;20028;-60
2021/03/04 04:27:11;;;;;;;25.77;8.60;;;;;;;;;;5029325;28;20036;-59
2021/03/04 04:29:39;;;;;;;20.17;7.13;;;;;;;;;;5039369;28;20527;-59
2021/03/04 04:32:04;;;;;;;30.25;8.25;;;;;;;;;;5040202;28;20063;-60
2021/03/04 04:34:32;;;;;;;21.95;6.63;;;;;;;;;;5025398;28;20025;-61
2021/03/04 04:37:00;;;;;;;24.40;7.57;;;;;;;;;;5029022;28;20086;-61
2021/03/04 04:39:28;;;;;;;15.35;6.47;;;;;;;;;;5026774;28;20039;-60
2021/03/04 04:41:53;;;;;;;20.83;6.65;;;;;;;;;;5037536;28;20032;-60
2021/03/04 04:44:21;;;;;;;20.42;7.22;;;;;;;;;;5039750;28;20028;-60
2021/03/04 04:46:49;;;;;;;21.48;6.72;;;;;;;;;;5022317;28;20020;-61
2021/03/04 04:49:14;;;;;;;19.40;7.15;;;;;;;;;;5042690;28;20378;-61
2021/03/04 04:51:40;;;;;;;19.08;6.57;;;;;;;;;;5041739;28;20036;-64
2021/03/04 04:54:05;;;;;;;23.58;6.78;;;;;;;;;;5040235;28;20024;-60
2021/03/04 04:56:31;;;;;;;26.08;6.72;;;;;;;;;;5042386;28;20133;-61
2021/03/04 04:58:56;;;;;;;21.08;6.97;;;;;;;;;;5029182;28;20040;-61
2021/03/04 05:01:22;;;;;;;18.02;6.30;;;;;;;;;;5057538;28;20033;-59
2021/03/04 05:03:48;;;;;;;16.65;6.38;;;;;;;;;;5040203;28;20059;-60
2021/03/04 05:06:16;;;;;;;22.38;7.20;;;;;;;;;;5041889;28;20028;-62
2021/03/04 05:08:41;;;;;;;16.38;5.70;;;;;;;;;;5045097;28;20040;-62
2021/03/04 05:11:07;;;;;;;21.15;7.03;;;;;;;;;;5040093;28;20043;-61
2021/03/04 05:13:35;;;;;;;19.50;6.65;;;;;;;;;;5041628;28;20119;-60
2021/03/04 05:16:02;;;;;;;13.85;6.35;;;;;;;;;;5055204;28;20041;-60
2021/03/04 05:18:28;;;;;;;15.88;6.78;;;;;;;;;;5021367;28;20041;-60
2021/03/04 05:20:54;;;;;;;14.98;6.72;;;;;;;;;;5056212;28;20120;-59
2021/03/04 05:23:21;;;;;;;14.63;6.20;;;;;;;;;;5038379;28;20043;-61
2021/03/04 05:25:49;;;;;;;19.67;7.20;;;;;;;;;;5057989;28;20114;-60
2021/03/04 05:28:17;;;;;;;18.85;6.63;;;;;;;;;;5040421;28;20028;-60
2021/03/04 05:30:43;;;;;;;19.30;6.68;;;;;;;;;;5045542;28;20036;-61
2021/03/04 05:33:11;;;;;;;15.93;6.45;;;;;;;;;;5045360;28;20047;-60
2021/03/04 05:35:37;;;;;;;18.08;6.70;;;;;;;;;;5021630;28;20171;-60
2021/03/04 05:38:02;;;;;;;16.63;6.78;;;;;;;;;;5040642;28;20024;-60
2021/03/04 05:40:30;;;;;;;15.35;5.97;;;;;;;;;;5057964;28;20043;-60
2021/03/04 05:42:56;;;;;;;20.58;7.75;;;;;;;;;;5031252;28;20126;-60
2021/03/04 05:45:23;;;;;;;15.15;6.13;;;;;;;;;;5043048;28;20035;-60
2021/03/04 05:47:48;;;;;;;13.05;5.50;;;;;;;;;;5057535;28;20027;-60
2021/03/04 05:50:16;;;;;;;15.05;6.18;;;;;;;;;;5042329;28;20561;-61
2021/03/04 05:52:46;;;;;;;15.98;6.90;;;;;;;;;;5057846;28;20360;-60
2021/03/04 05:55:12;;;;;;;16.33;6.18;;;;;;;;;;5046753;28;20178;-61
2021/03/04 05:57:38;;;;;;;19.88;7.65;;;;;;;;;;5049896;28;20032;-60
2021/03/04 06:00:04;;;;;;;17.70;6.68;;;;;;;;;;5057584;28;20028;-60
2021/03/04 06:02:29;;;;;;;14.30;6.57;;;;;;;;;;5042252;28;20036;-60
2021/03/04 06:04:57;;;;;;;14.65;6.68;;;;;;;;;;5044087;28;20445;-60
2021/03/04 06:07:22;;;;;;;15.02;6.30;;;;;;;;;;5044606;28;20042;-61
2021/03/04 06:09:48;;;;;;;18.98;7.00;;;;;;;;;;5041140;28;20646;-60
2021/03/04 06:12:15;;;;;;;16.20;6.80;;;;;;;;;;5041034;28;20024;-60
2021/03/04 06:14:44;;;;;;;16.33;6.68;;;;;;;;;;5059354;28;20047;-61
2021/03/04 06:17:10;;;;;;;14.82;6.55;;;;;;;;;;5059364;28;20064;-61
2021/03/04 06:19:35;;;;;;;16.02;7.03;;;;;;;;;;5056889;28;20125;-60
2021/03/04 06:22:02;;;;;;;14.43;6.63;;;;;;;;;;5059258;28;21233;-60
2021/03/04 06:24:27;;;;;;;17.65;6.47;;;;;;;;;;5043517;28;20065;-60
2021/03/04 06:26:54;;;;;;;15.70;6.13;;;;;;;;;;5046767;28;20032;-60
2021/03/04 06:29:21;;;;;;;17.95;7.57;;;;;;;;;;5041765;28;20405;-60
2021/03/04 06:31:58;;;;;;;13.70;6.03;;;;;;;;;;5028984;28;20044;-60
2021/03/04 06:34:23;;;;;;;16.25;6.45;;;;;;;;;;5059564;28;20440;-59
2021/03/04 06:36:56;;;;;;;12.27;5.35;;;;;;;;;;5057699;28;20119;-61
2021/03/04 06:39:22;;;;;;;13.77;6.45;;;;;;;;;;5059407;28;20055;-59
2021/03/04 06:42:18;;;;;;;16.35;6.57;;;;;;;;;;5046347;28;20124;-60
2021/03/04 06:44:48;;;;;;;13.95;6.30;;;;;;;;;;5028175;28;20044;-60
2021/03/04 06:47:22;;;;;;;12.55;5.40;;;;;;;;;;5042061;28;20151;-62
2021/03/04 06:49:48;;;;;;;15.27;6.13;;;;;;;;;;5059753;28;20371;-62
2021/03/04 06:52:32;;;;;;;13.20;4.97;;;;;;;;;;5040818;28;20029;-59
2021/03/04 06:55:07;;;;;;;13.02;5.78;;;;;;;;;;5038412;28;20113;-60
2021/03/04 06:57:33;;;;;;;13.48;5.65;;;;;;;;;;5058648;28;20032;-61
2021/03/04 06:59:58;;;;;;;11.63;5.28;;;;;;;;;;5055916;28;20101;-60
2021/03/04 07:02:29;;;;;;;14.65;6.10;;;;;;;;;;5058113;28;20383;-60
2021/03/04 07:04:57;;;;;;;11.18;4.97;;;;;;;;;;5041510;28;20032;-60
2021/03/04 07:07:24;;;;;;;11.57;5.85;;;;;;;;;;5058117;28;20031;-59
2021/03/04 07:09:59;;;;;;;12.93;6.10;;;;;;;;;;5060379;28;20683;-59
2021/03/04 07:12:25;;;;;;;11.52;5.60;;;;;;;;;;5025479;28;21002;-60
2021/03/04 07:14:53;;;;;;;11.73;5.78;;;;;;;;;;5059424;28;20525;-59
2021/03/04 07:17:22;;;;;;;19.63;5.70;;;;;;;;;;5044849;28;20050;-60
2021/03/04 07:19:50;;;;;;;15.85;5.50;;;;;;;;;;5056159;28;20048;-59
2021/03/04 07:22:19;;;;;;;15.90;6.00;;;;;;;;;;5057426;28;20090;-60
2021/03/04 07:24:49;;;;;;;13.07;5.40;;;;;;;;;;5031002;28;20032;-61
2021/03/04 07:27:16;;;;;;;11.07;5.07;;;;;;;;;;5044736;28;20044;-61
2021/03/04 07:29:43;;;;;;;10.52;5.15;;;;;;;;;;5059065;28;20075;-62
2021/03/04 07:32:09;;;;;;;11.38;4.15;;;;;;;;;;5059291;28;20024;-59
2021/03/04 07:34:35;;;;;;;15.75;5.22;;;;;;;;;;5028838;28;20059;-60
2021/03/04 07:37:02;;;;;;;9.77;4.97;;;;;;;;;;5038062;28;20055;-60
2021/03/04 07:39:32;;;;;;;11.18;4.40;;;;;;;;;;5041025;28;20570;-60
2021/03/04 07:41:58;;;;;;;10.10;4.95;;;;;;;;;;5058512;28;20033;-60
2021/03/04 07:44:26;;;;;;;10.38;4.53;;;;;;;;;;5056728;28;20039;-61
2021/03/04 07:46:53;;;;;;;6.63;3.67;;;;;;;;;;5036458;28;20035;-58
2021/03/04 07:49:30;;;;;;;5.57;3.55;;;;;;;;;;5040554;28;20062;-59
2021/03/04 07:51:58;;;;;;;11.07;4.05;;;;;;;;;;5043559;28;20498;-60
2021/03/04 07:54:28;;;;;;;5.63;3.67;;;;;;;;;;5045639;28;20032;-60
2021/03/04 07:57:03;;;;;;;12.55;3.60;;;;;;;;;;5057183;28;20028;-60
2021/03/04 07:59:29;;;;;;;9.77;3.58;;;;;;;;;;5029561;28;20035;-60
2021/03/04 08:01:55;;;;;;;4.82;3.00;;;;;;;;;;5053615;28;20032;-61
2021/03/04 08:04:22;;;;;;;4.40;3.05;;;;;;;;;;5043725;28;20039;-59
2021/03/04 08:06:50;;;;;;;8.00;2.92;;;;;;;;;;5057715;28;20024;-59
2021/03/04 08:09:42;;;;;;;5.90;2.55;;;;;;;;;;5058404;28;20032;-59
2021/03/04 08:12:12;;;;;;;7.43;2.75;;;;;;;;;;5031662;28;20036;-59
2021/03/04 08:14:53;;;;;;;4.90;2.63;;;;;;;;;;5041675;28;20051;-59
2021/03/04 08:17:19;;;;;;;6.45;2.97;;;;;;;;;;5038814;28;20035;-59
2021/03/04 08:19:45;;;;;;;8.48;3.50;;;;;;;;;;5027365;28;20043;-59
2021/03/04 08:22:11;;;;;;;8.43;3.33;;;;;;;;;;5036215;28;20065;-60
2021/03/04 08:24:37;;;;;;;5.38;3.20;;;;;;;;;;5025686;28;20509;-59
2021/03/04 08:27:05;;;;;;;6.15;3.13;;;;;;;;;;5058218;28;20522;-59
2021/03/04 08:29:32;;;;;;;6.75;3.80;;;;;;;;;;5037260;28;20598;-59
2021/03/04 08:32:00;;;;;;;5.72;3.38;;;;;;;;;;5054809;28;20651;-60
2021/03/04 08:34:35;;;;;;;8.85;4.07;;;;;;;;;;5055911;28;22081;-60
2021/03/04 08:37:01;;;;;;;5.22;3.13;;;;;;;;;;5042902;28;20044;-59
2021/03/04 08:39:30;;;;;;;8.15;4.07;;;;;;;;;;5046802;28;20047;-60
2021/03/04 08:42:02;;;;;;;7.53;3.22;;;;;;;;;;5054323;28;20028;-60
2021/03/04 08:44:28;;;;;;;6.93;3.13;;;;;;;;;;5057706;28;20285;-61
2021/03/04 08:46:53;;;;;;;5.53;3.30;;;;;;;;;;5021297;28;20043;-59
2021/03/04 08:49:20;;;;;;;4.10;2.25;;;;;;;;;;5037440;28;20967;-61
2021/03/04 08:51:46;;;;;;;4.22;2.95;;;;;;;;;;5055374;28;20526;-61
2021/03/04 08:54:25;;;;;;;5.63;3.08;;;;;;;;;;5040369;28;20032;-61
2021/03/04 08:56:58;;;;;;;11.25;3.50;;;;;;;;;;5042227;28;20051;-60
2021/03/04 08:59:24;;;;;;;8.10;3.00;;;;;;;;;;5023384;28;20072;-61
2021/03/04 09:01:49;;;;;;;4.00;2.67;;;;;;;;;;5038712;28;20028;-60
2021/03/04 09:04:18;;;;;;;10.57;3.38;;;;;;;;;;5023594;28;20028;-60
2021/03/04 09:06:44;;;;;;;5.45;2.92;;;;;;;;;;5056479;28;20139;-60
2021/03/04 09:09:19;;;;;;;6.30;3.13;;;;;;;;;;5040527;28;20108;-60
2021/03/04 09:11:45;;;;;;;4.47;2.58;;;;;;;;;;5056979;28;20032;-60
2021/03/04 09:14:13;;;;;;;6.63;2.63;;;;;;;;;;5023764;28;20098;-61
2021/03/04 09:16:42;;;;;;;3.53;2.88;;;;;;;;;;5046092;28;20028;-61
2021/03/04 09:19:07;;;;;;;7.95;2.85;;;;;;;;;;5056617;28;20432;-61
2021/03/04 09:21:35;;;;;;;6.03;2.50;;;;;;;;;;5054934;28;20042;-62
2021/03/04 09:24:02;;;;;;;3.33;2.33;;;;;;;;;;5027964;28;22208;-61
2021/03/04 09:26:32;;;;;;;3.05;2.30;;;;;;;;;;5055023;28;20876;-61
2021/03/04 09:29:01;;;;;;;3.38;2.33;;;;;;;;;;5044888;28;20122;-62
2021/03/04 09:31:26;;;;;;;3.80;2.20;;;;;;;;;;5055225;28;20317;-61
2021/03/04 09:34:02;;;;;;;3.33;1.45;;;;;;;;;;5025453;28;20047;-61
2021/03/04 09:36:28;;;;;;;6.05;1.60;;;;;;;;;;5037030;28;20067;-60
2021/03/04 09:38:55;;;;;;;4.47;1.58;;;;;;;;;;5044115;28;20507;-61
2021/03/04 09:41:23;;;;;;;5.13;1.90;;;;;;;;;;5039198;28;20039;-61
2021/03/04 09:43:50;;;;;;;4.50;1.80;;;;;;;;;;5040255;28;20704;-61
2021/03/04 09:46:29;;;;;;;5.22;1.75;;;;;;;;;;5022863;28;20036;-62
2021/03/04 09:49:11;;;;;;;4.28;1.88;;;;;;;;;;5042354;28;20040;-62
2021/03/04 09:51:45;;;;;;;5.18;1.55;;;;;;;;;;5054686;28;20017;-61
2021/03/04 09:54:11;;;;;;;2.55;1.35;;;;;;;;;;5039471;28;20032;-60
2021/03/04 09:56:36;;;;;;;5.60;1.45;;;;;;;;;;5025705;28;20028;-61
2021/03/04 09:59:02;;;;;;;14.05;1.95;;;;;;;;;;5038092;28;20148;-61
2021/03/04 10:01:28;;;;;;;6.47;1.35;;;;;;;;;;5032703;28;20093;-61
2021/03/04 10:03:59;;;;;;;9.73;1.15;;;;;;;;;;5039798;28;20040;-61
2021/03/04 10:06:25;;;;;;;7.22;1.50;;;;;;;;;;5039881;28;20028;-61
2021/03/04 10:08:52;;;;;;;5.20;1.17;;;;;;;;;;5038391;28;20043;-61
2021/03/04 10:11:22;;;;;;;10.00;1.30;;;;;;;;;;5043904;28;20110;-62
2021/03/04 10:13:48;;;;;;;4.70;0.95;;;;;;;;;;5022712;28;20063;-61
2021/03/04 10:16:14;;;;;;;5.15;1.77;;;;;;;;;;5023779;28;20048;-62
2021/03/04 10:18:44;;;;;;;8.43;1.77;;;;;;;;;;5038513;28;20127;-61
2021/03/04 10:21:11;;;;;;;8.13;1.42;;;;;;;;;;5051356;28;20495;-62
2021/03/04 10:23:37;;;;;;;12.05;1.38;;;;;;;;;;5036799;28;20031;-61
2021/03/04 10:26:10;;;;;;;7.53;1.13;;;;;;;;;;5040133;28;20141;-61
2021/03/04 10:28:36;;;;;;;6.05;1.20;;;;;;;;;;5043825;28;20035;-61
2021/03/04 10:31:02;;;;;;;4.18;1.30;;;;;;;;;;5045339;28;20020;-62
2021/03/04 10:33:28;;;;;;;4.97;0.93;;;;;;;;;;5057702;28;20487;-61
2021/03/04 10:35:57;;;;;;;6.97;1.02;;;;;;;;;;5058372;28;20033;-61
2021/03/04 10:38:23;;;;;;;10.60;1.45;;;;;;;;;;5058611;28;20033;-62
2021/03/04 10:40:49;;;;;;;4.00;1.00;;;;;;;;;;5040755;28;20083;-61
2021/03/04 10:43:15;;;;;;;6.32;0.85;;;;;;;;;;5042705;28;20051;-62
2021/03/04 10:45:44;;;;;;;9.07;1.00;;;;;;;;;;5060060;28;20574;-64
2021/03/04 10:48:10;;;;;;;9.25;1.67;;;;;;;;;;5019445;28;20058;-63
2021/03/04 10:50:36;;;;;;;6.93;1.50;;;;;;;;;;5039982;28;20039;-63
2021/03/04 10:53:06;;;;;;;6.93;1.13;;;;;;;;;;5056445;28;20036;-63
2021/03/04 10:55:34;;;;;;;8.02;1.48;;;;;;;;;;5040868;28;20116;-64
2021/03/04 10:58:02;;;;;;;9.65;1.73;;;;;;;;;;5058324;28;20036;-62
2021/03/04 11:00:29;;;;;;;9.55;1.33;;;;;;;;;;5037900;28;20036;-68
2021/03/04 11:02:55;;;;;;;14.07;1.65;;;;;;;;;;5021326;28;20025;-62
2021/03/04 11:05:22;;;;;;;22.38;2.15;;;;;;;;;;5037152;28;20032;-62
2021/03/04 11:07:50;;;;;;;14.93;2.33;;;;;;;;;;5038572;28;20035;-63
2021/03/04 11:10:15;;;;;;;14.15;2.03;;;;;;;;;;5059803;28;20043;-62
2021/03/04 11:12:43;;;;;;;12.48;1.45;;;;;;;;;;5058797;28;20081;-63
2021/03/04 11:15:09;;;;;;;18.02;1.75;;;;;;;;;;5049026;28;20521;-63
2021/03/04 11:17:34;;;;;;;15.80;2.10;;;;;;;;;;5061978;28;20024;-62
2021/03/04 11:20:02;;;;;;;18.33;2.72;;;;;;;;;;5030259;28;20037;-63
2021/03/04 11:22:28;;;;;;;16.45;2.15;;;;;;;;;;5042925;28;20052;-63
2021/03/04 11:24:53;;;;;;;17.95;2.50;;;;;;;;;;5049998;28;20344;-62
2021/03/04 11:27:19;;;;;;;11.40;2.33;;;;;;;;;;5044000;28;20036;-62
2021/03/04 11:29:47;;;;;;;17.27;2.15;;;;;;;;;;5041395;28;20103;-61
2021/03/04 11:32:13;;;;;;;17.48;2.42;;;;;;;;;;5045028;28;20028;-62
2021/03/04 11:34:38;;;;;;;10.32;2.13;;;;;;;;;;5060704;28;20035;-62
2021/03/04 11:37:04;;;;;;;8.95;1.90;;;;;;;;;;5054885;28;20032;-62
2021/03/04 11:39:30;;;;;;;11.43;2.10;;;;;;;;;;5041351;28;20032;-62
2021/03/04 11:41:55;;;;;;;9.38;1.88;;;;;;;;;;5030567;28;20062;-63
2021/03/04 11:44:21;;;;;;;19.45;2.42;;;;;;;;;;5048509;28;20024;-63
2021/03/04 11:46:46;;;;;;;13.07;1.83;;;;;;;;;;5027716;28;20085;-67
2021/03/04 11:49:12;;;;;;;14.18;1.83;;;;;;;;;;5027357;28;20942;-62
2021/03/04 11:51:38;;;;;;;21.60;2.28;;;;;;;;;;5029777;28;20032;-63
2021/03/04 11:54:09;;;;;;;9.70;1.88;;;;;;;;;;5042404;28;20070;-63
2021/03/04 11:56:35;;;;;;;16.15;2.25;;;;;;;;;;5045269;28;20032;-62
2021/03/04 11:59:02;;;;;;;10.02;2.40;;;;;;;;;;5044719;28;20721;-63
2021/03/04 12:01:28;;;;;;;9.32;1.50;;;;;;;;;;5031787;28;20024;-62
2021/03/04 12:03:57;;;;;;;14.73;1.90;;;;;;;;;;5042683;28;20630;-62
2021/03/04 12:06:23;;;;;;;16.50;2.45;;;;;;;;;;5058061;28;20085;-62
2021/03/04 12:08:48;;;;;;;9.70;2.10;;;;;;;;;;5030939;28;20479;-63
2021/03/04 12:11:17;;;;;;;14.88;2.13;;;;;;;;;;5060207;28;20063;-61
2021/03/04 12:13:45;;;;;;;12.30;1.88;;;;;;;;;;5041699;28;20199;-61
2021/03/04 12:16:11;;;;;;;16.15;2.25;;;;;;;;;;5030502;28;20044;-61
2021/03/04 12:18:36;;;;;;;16.13;1.40;;;;;;;;;;5061712;28;20032;-61
2021/03/04 12:21:05;;;;;;;15.10;1.70;;;;;;;;;;5048429;28;20036;-62
2021/03/04 12:23:34;;;;;;;9.23;1.42;;;;;;;;;;5061221;28;20145;-61
2021/03/04 12:26:02;;;;;;;11.57;2.45;;;;;;;;;;5029919;28;20867;-62
2021/03/04 12:28:28;;;;;;;10.93;1.58;;;;;;;;;;5042901;28;20100;-63
2021/03/04 12:30:53;;;;;;;12.20;1.73;;;;;;;;;;5047671;28;20038;-62
2021/03/04 12:33:21;;;;;;;9.15;1.60;;;;;;;;;;5060197;28;20048;-61
2021/03/04 12:35:49;;;;;;;10.45;1.63;;;;;;;;;;5041718;28;20095;-63
2021/03/04 12:38:19;;;;;;;4.95;1.15;;;;;;;;;;5046130;28;20043;-62
2021/03/04 12:40:44;;;;;;;12.85;1.67;;;;;;;;;;5058665;28;20029;-62
2021/03/04 12:43:10;;;;;;;9.48;1.25;;;;;;;;;;5015475;28;20046;-61
2021/03/04 12:45:38;;;;;;;14.77;2.10;;;;;;;;;;5041942;28;20035;-61
2021/03/04 12:48:06;;;;;;;10.85;1.88;;;;;;;;;;5014076;28;20028;-61
2021/03/04 12:50:32;;;;;;;15.60;2.38;;;;;;;;;;5040997;28;20091;-62
2021/03/04 12:53:00;;;;;;;10.27;1.70;;;;;;;;;;5011136;28;20131;-62
2021/03/04 12:55:26;;;;;;;14.60;2.28;;;;;;;;;;5048212;28;20028;-61
2021/03/04 12:57:53;;;;;;;15.25;2.50;;;;;;;;;;5030104;28;20051;-62
2021/03/04 13:00:24;;;;;;;17.25;2.28;;;;;;;;;;5059267;28;20446;-61
2021/03/04 13:02:49;;;;;;;19.17;2.00;;;;;;;;;;5059501;28;20111;-61
2021/03/04 13:05:17;;;;;;;18.08;2.25;;;;;;;;;;5026419;28;20111;-62
2021/03/04 13:07:43;;;;;;;15.45;2.42;;;;;;;;;;5059780;28;20070;-62
2021/03/04 13:10:12;;;;;;;15.68;2.63;;;;;;;;;;5059696;28;20028;-61
2021/03/04 13:12:41;;;;;;;30.50;2.67;;;;;;;;;;5040082;28;20081;-62
2021/03/04 13:15:10;;;;;;;21.05;3.03;;;;;;;;;;5059050;28;21020;-62
2021/03/04 13:17:40;;;;;;;17.10;2.20;;;;;;;;;;5042799;28;20402;-63
2021/03/04 13:20:13;;;;;;;11.45;2.63;;;;;;;;;;5025337;28;20040;-65
2021/03/04 13:22:38;;;;;;;24.65;2.85;;;;;;;;;;5023100;28;20084;-63
2021/03/04 13:25:07;;;;;;;12.05;2.10;;;;;;;;;;5042831;28;20032;-63
2021/03/04 13:27:33;;;;;;;14.23;2.22;;;;;;;;;;5059753;28;20032;-62
2021/03/04 13:30:00;;;;;;;16.92;2.17;;;;;;;;;;5026135;28;20797;-62
2021/03/04 13:32:26;;;;;;;9.50;1.50;;;;;;;;;;5042728;28;20120;-61
2021/03/04 13:34:54;;;;;;;17.00;2.05;;;;;;;;;;5038909;28;20064;-62
2021/03/04 13:37:24;;;;;;;14.88;1.90;;;;;;;;;;5058679;28;20032;-63
2021/03/04 13:39:52;;;;;;;16.02;2.33;;;;;;;;;;5026198;28;20024;-61
2021/03/04 13:42:18;;;;;;;15.20;1.77;;;;;;;;;;5058888;28;20172;-62
2021/03/04 13:44:47;;;;;;;16.83;1.92;;;;;;;;;;5058669;28;22427;-62
2021/03/04 13:47:12;;;;;;;6.70;1.90;;;;;;;;;;5029897;28;20051;-61
2021/03/04 13:49:37;;;;;;;20.15;2.45;;;;;;;;;;5030908;28;20062;-62
2021/03/04 13:52:03;;;;;;;16.27;1.85;;;;;;;;;;5057951;28;20119;-61
2021/03/04 13:54:28;;;;;;;12.43;2.28;;;;;;;;;;5056086;28;20149;-62
2021/03/04 13:56:59;;;;;;;13.95;2.45;;;;;;;;;;5056725;28;20398;-61
2021/03/04 13:59:25;;;;;;;22.70;2.35;;;;;;;;;;5048401;28;20028;-62
2021/03/04 14:01:53;;;;;;;11.63;2.17;;;;;;;;;;5046941;28;20495;-62
2021/03/04 14:04:18;;;;;;;13.07;2.40;;;;;;;;;;5033866;28;20510;-61
2021/03/04 14:06:44;;;;;;;16.00;2.38;;;;;;;;;;5063355;28;20112;-61
2021/03/04 14:09:09;;;;;;;15.88;2.22;;;;;;;;;;5017081;28;21292;-61
2021/03/04 14:11:35;;;;;;;16.30;2.03;;;;;;;;;;5044386;28;20085;-62
2021/03/04 14:14:03;;;;;;;18.33;2.08;;;;;;;;;;5046668;28;20071;-62
2021/03/04 14:16:31;;;;;;;19.88;2.42;;;;;;;;;;5015158;28;20138;-62
2021/03/04 14:19:01;;;;;;;14.27;2.13;;;;;;;;;;5062272;28;20055;-63
2021/03/04 14:21:27;;;;;;;24.65;2.80;;;;;;;;;;5062450;28;20039;-62
2021/03/04 14:23:53;;;;;;;12.80;2.08;;;;;;;;;;5044598;28;20051;-60
2021/03/04 14:26:18;;;;;;;15.52;2.95;;;;;;;;;;5047133;28;20036;-61
2021/03/04 14:28:46;;;;;;;15.60;2.40;;;;;;;;;;5034983;28;20056;-62
2021/03/04 14:31:11;;;;;;;17.42;2.50;;;;;;;;;;5043128;28;20124;-62
2021/03/04 14:33:41;;;;;;;17.40;2.45;;;;;;;;;;5047719;28;20035;-62